Time;durP1;ratioP1;P1;durP2;ratioP2;P2;SDS_P1;SDS_P2;PMS_P1;PMS_P2;Temp;Humidity;BMP_temperature;BMP_pressure;BME280_temperature;BME280_humidity;BME280_pressure;Samples;Min_cycle;Max_cycle;Signal;HPM_P1;HPM_P2
2023/01/11 00:00:41;;;;;;;;;;;18.50;45.70;;;;;;4993582;28;19918;-53
2023/01/11 00:03:07;;;;;;;;;;;18.50;45.70;;;;;;4996994;28;19929;-53
2023/01/11 00:05:36;;;;;;;;;;;18.50;45.80;;;;;;5022113;28;19918;-54
2023/01/11 00:08:03;;;;;;;;;;;18.50;45.80;;;;;;5005468;28;19914;-53
2023/01/11 00:10:29;;;;;;;;;;;18.40;45.90;;;;;;4994146;28;19945;-53
2023/01/11 00:12:54;;;;;;;;;;;18.40;46.00;;;;;;5002310;28;19949;-53
2023/01/11 00:15:20;;;;;;;;;;;18.40;46.10;;;;;;5012209;28;19944;-53
2023/01/11 00:17:45;;;;;;;;;;;18.40;46.10;;;;;;5009857;28;19961;-53
2023/01/11 00:20:11;;;;;;;;;;;18.40;46.10;;;;;;5018095;28;19920;-53
2023/01/11 00:22:36;;;;;;;;;;;18.30;46.10;;;;;;5006543;28;19924;-53
2023/01/11 00:25:02;;;;;;;;;;;18.30;46.10;;;;;;5010861;28;19963;-53
2023/01/11 00:27:27;;;;;;;;;;;18.30;46.30;;;;;;5011770;28;20329;-53
2023/01/11 00:29:53;;;;;;;;;;;18.30;46.40;;;;;;4998846;28;19937;-53
2023/01/11 00:32:18;;;;;;;;;;;18.30;46.40;;;;;;5007402;28;19957;-52
2023/01/11 00:34:43;;;;;;;;;;;18.20;46.30;;;;;;5000527;28;19922;-53
2023/01/11 00:37:09;;;;;;;;;;;18.20;46.40;;;;;;5010572;28;19917;-53
2023/01/11 00:39:35;;;;;;;;;;;18.20;46.50;;;;;;4993840;28;19918;-53
2023/01/11 00:50:13;;;;;;;;;;;18.20;46.70;;;;;;5016523;28;19968;-53
2023/01/11 00:52:38;;;;;;;;;;;18.10;46.70;;;;;;5007645;28;20428;-53
2023/01/11 00:55:04;;;;;;;;;;;18.00;46.70;;;;;;5004545;28;19923;-54
2023/01/11 00:57:30;;;;;;;;;;;18.10;46.80;;;;;;5003896;28;19968;-54
2023/01/11 00:59:55;;;;;;;;;;;18.00;46.80;;;;;;5010142;28;19971;-53
2023/01/11 01:02:21;;;;;;;;;;;18.00;46.80;;;;;;5004101;28;19921;-53
2023/01/11 01:04:46;;;;;;;;;;;18.00;46.80;;;;;;5004508;28;19948;-53
2023/01/11 01:07:12;;;;;;;;;;;18.00;46.90;;;;;;5008788;28;20377;-53
2023/01/11 01:09:37;;;;;;;;;;;18.00;47.00;;;;;;4998674;28;20374;-52
2023/01/11 01:12:03;;;;;;;;;;;18.00;47.00;;;;;;4998427;28;19913;-53
2023/01/11 01:14:29;;;;;;;;;;;18.00;47.00;;;;;;5014140;28;19971;-53
2023/01/11 01:16:55;;;;;;;;;;;17.90;47.00;;;;;;4998861;28;19982;-52
2023/01/11 01:19:21;;;;;;;;;;;17.90;47.10;;;;;;5009706;28;20217;-54
2023/01/11 01:21:47;;;;;;;;;;;17.90;47.30;;;;;;5007248;28;19921;-53
2023/01/11 01:24:12;;;;;;;;;;;17.90;47.30;;;;;;5026286;28;19967;-53
2023/01/11 01:26:38;;;;;;;;;;;17.80;47.30;;;;;;5001142;28;20362;-53
2023/01/11 01:29:03;;;;;;;;;;;17.80;47.40;;;;;;4997076;28;19921;-53
2023/01/11 01:31:29;;;;;;;;;;;17.80;47.40;;;;;;4996236;28;19964;-53
2023/01/11 01:33:54;;;;;;;;;;;17.80;47.40;;;;;;5001016;28;19917;-53
2023/01/11 01:36:20;;;;;;;;;;;17.80;47.50;;;;;;5003521;28;20274;-53
2023/01/11 01:38:45;;;;;;;;;;;17.70;47.50;;;;;;5004582;28;19925;-53
2023/01/11 01:41:13;;;;;;;;;;;17.70;47.60;;;;;;5029780;28;19916;-53
2023/01/11 01:43:52;;;;;;;;;;;17.70;47.60;;;;;;5009567;28;19960;-53
2023/01/11 01:46:18;;;;;;;;;;;17.70;47.70;;;;;;4995752;28;19910;-53
2023/01/11 01:48:45;;;;;;;;;;;17.70;47.80;;;;;;5004092;28;19913;-53
2023/01/11 01:51:12;;;;;;;;;;;17.70;47.70;;;;;;5014018;28;19917;-53
2023/01/11 01:53:39;;;;;;;;;;;17.70;47.80;;;;;;5027771;28;20497;-53
2023/01/11 01:56:07;;;;;;;;;;;17.70;47.80;;;;;;5010146;28;20274;-53
2023/01/11 01:58:34;;;;;;;;;;;17.70;47.80;;;;;;5029526;28;20365;-53
2023/01/11 02:01:45;;;;;;;;;;;17.70;47.90;;;;;;5027190;28;19917;-53
2023/01/11 02:03:45;;;;;;;;;;;17.60;47.90;;;;;;5022155;28;19918;-53
2023/01/11 02:06:11;;;;;;;;;;;17.70;48.00;;;;;;4995461;28;19910;-53
2023/01/11 02:08:36;;;;;;;;;;;17.60;48.00;;;;;;4996485;28;19960;-53
2023/01/11 02:11:02;;;;;;;;;;;17.60;48.00;;;;;;5028664;28;19946;-54
2023/01/11 02:13:27;;;;;;;;;;;17.60;48.00;;;;;;5015754;28;19913;-53
2023/01/11 02:16:06;;;;;;;;;;;17.70;47.90;;;;;;5011371;28;19920;-53
2023/01/11 02:18:32;;;;;;;;;;;17.90;47.60;;;;;;5013619;28;19914;-53
2023/01/11 02:21:11;;;;;;;;;;;18.10;47.10;;;;;;5033324;28;19938;-54
2023/01/11 02:23:45;;;;;;;;;;;18.40;46.70;;;;;;5028589;28;19917;-53
2023/01/11 02:26:13;;;;;;;;;;;18.80;45.90;;;;;;5000302;28;19921;-54
2023/01/11 02:28:46;;;;;;;;;;;19.30;45.10;;;;;;5007522;28;21579;-54
2023/01/11 02:31:17;;;;;;;;;;;19.80;44.20;;;;;;5022149;28;19920;-53
2023/01/11 02:33:51;;;;;;;;;;;20.20;43.60;;;;;;5004974;28;19980;-54
2023/01/11 02:36:27;;;;;;;;;;;20.50;42.80;;;;;;4998316;28;19925;-54
2023/01/11 02:38:54;;;;;;;;;;;20.70;42.40;;;;;;5015160;28;19924;-54
2023/01/11 02:45:00;;;;;;;;;;;20.90;42.10;;;;;;5004829;28;20378;-53
2023/01/11 02:47:17;;;;;;;;;;;20.60;42.70;;;;;;5001784;28;20301;-54
2023/01/11 02:49:59;;;;;;;;;;;20.40;43.30;;;;;;5033943;28;19915;-53
2023/01/11 02:52:26;;;;;;;;;;;20.20;43.60;;;;;;5010656;28;19918;-53
2023/01/11 02:54:54;;;;;;;;;;;20.00;44.10;;;;;;5013371;28;20309;-53
2023/01/11 02:57:20;;;;;;;;;;;19.90;44.30;;;;;;5046300;28;20366;-53
2023/01/11 02:59:47;;;;;;;;;;;19.70;44.40;;;;;;5035200;28;19921;-53
2023/01/11 03:02:13;;;;;;;;;;;19.70;44.80;;;;;;5011572;28;19913;-53
2023/01/11 03:04:38;;;;;;;;;;;19.60;44.90;;;;;;5004667;28;19940;-53
2023/01/11 03:07:10;;;;;;;;;;;19.60;45.10;;;;;;4999289;28;19940;-53
2023/01/11 03:09:36;;;;;;;;;;;19.50;45.20;;;;;;5044743;28;19913;-53
2023/01/11 03:15:01;;;;;;;;;;;19.50;45.40;;;;;;5013221;28;20000;-53
2023/01/11 03:17:50;;;;;;;;;;;19.50;45.50;;;;;;5018607;28;20394;-54
2023/01/11 03:20:16;;;;;;;;;;;19.40;45.50;;;;;;5011667;28;19913;-54
2023/01/11 03:22:51;;;;;;;;;;;19.40;45.60;;;;;;5013973;28;19921;-52
2023/01/11 03:25:23;;;;;;;;;;;19.30;45.60;;;;;;5013362;28;20278;-54
2023/01/11 03:27:56;;;;;;;;;;;19.30;45.80;;;;;;5009728;28;19927;-55
2023/01/11 03:30:30;;;;;;;;;;;19.30;45.90;;;;;;5001735;28;19913;-54
2023/01/11 03:33:09;;;;;;;;;;;19.30;45.90;;;;;;5001956;28;20024;-52
2023/01/11 03:35:40;;;;;;;;;;;19.30;46.00;;;;;;5012270;28;19928;-55
2023/01/11 03:38:10;;;;;;;;;;;19.30;46.00;;;;;;5012193;28;19920;-53
2023/01/11 03:40:43;;;;;;;;;;;19.30;46.00;;;;;;5031346;28;20282;-53
2023/01/11 03:43:09;;;;;;;;;;;19.20;46.00;;;;;;5025849;28;19925;-53
2023/01/11 03:45:36;;;;;;;;;;;19.20;46.20;;;;;;5025895;28;19914;-53
2023/01/11 03:48:02;;;;;;;;;;;19.20;46.30;;;;;;5004824;28;20043;-53
2023/01/11 03:50:27;;;;;;;;;;;19.20;46.30;;;;;;5009743;28;19985;-53
2023/01/11 03:52:53;;;;;;;;;;;19.10;46.30;;;;;;5025515;28;19918;-52
2023/01/11 03:55:18;;;;;;;;;;;19.10;46.40;;;;;;5006417;28;19936;-53
2023/01/11 03:57:50;;;;;;;;;;;19.10;46.60;;;;;;5003037;28;19918;-54
2023/01/11 04:00:17;;;;;;;;;;;19.00;46.60;;;;;;5027925;28;19920;-54
2023/01/11 04:02:42;;;;;;;;;;;19.00;46.60;;;;;;4995426;28;20008;-52
2023/01/11 04:05:08;;;;;;;;;;;19.10;46.70;;;;;;5019770;28;20040;-52
2023/01/11 04:07:34;;;;;;;;;;;19.10;46.70;;;;;;4994816;28;19921;-53
2023/01/11 04:09:59;;;;;;;;;;;19.10;46.70;;;;;;5008567;28;19917;-53
2023/01/11 04:12:25;;;;;;;;;;;19.10;46.70;;;;;;5004096;28;20012;-53
2023/01/11 04:14:50;;;;;;;;;;;19.10;46.60;;;;;;5012565;28;19941;-53
2023/01/11 04:17:15;;;;;;;;;;;19.20;46.70;;;;;;5004801;28;20008;-53
2023/01/11 04:19:41;;;;;;;;;;;19.10;46.60;;;;;;5010844;28;20297;-53
2023/01/11 04:22:06;;;;;;;;;;;19.10;46.60;;;;;;5011646;28;20361;-53
2023/01/11 04:24:32;;;;;;;;;;;19.10;46.80;;;;;;4993499;28;20005;-53
2023/01/11 04:26:57;;;;;;;;;;;19.10;46.90;;;;;;4993437;28;19910;-53
2023/01/11 04:29:23;;;;;;;;;;;19.10;46.90;;;;;;5002889;28;19914;-53
2023/01/11 04:31:48;;;;;;;;;;;19.10;47.00;;;;;;5022260;28;19921;-54
2023/01/11 04:34:14;;;;;;;;;;;19.10;47.10;;;;;;5011833;28;19967;-53
2023/01/11 04:36:39;;;;;;;;;;;19.00;47.10;;;;;;5001297;28;19928;-53
2023/01/11 04:39:05;;;;;;;;;;;19.00;47.10;;;;;;5003246;28;19909;-53
2023/01/11 04:44:14;;;;;;;;;;;19.00;47.30;;;;;;5013032;28;20447;-52
2023/01/11 04:46:40;;;;;;;;;;;18.90;48.00;;;;;;5003498;28;19914;-54
2023/01/11 04:49:05;;;;;;;;;;;19.00;48.00;;;;;;4992846;28;19918;-53
2023/01/11 04:51:31;;;;;;;;;;;19.00;47.40;;;;;;4996540;28;19910;-53
2023/01/11 04:53:56;;;;;;;;;;;19.00;47.30;;;;;;5012463;28;19968;-53
2023/01/11 04:56:21;;;;;;;;;;;19.00;47.40;;;;;;5000674;28;19993;-53
2023/01/11 04:58:47;;;;;;;;;;;19.00;47.30;;;;;;4993898;28;19993;-53
2023/01/11 05:01:16;;;;;;;;;;;19.00;47.40;;;;;;5040753;28;19909;-53
2023/01/11 05:03:42;;;;;;;;;;;19.00;47.50;;;;;;5007184;28;19914;-53
2023/01/11 05:06:07;;;;;;;;;;;19.00;47.50;;;;;;5011366;28;19909;-55
2023/01/11 05:08:33;;;;;;;;;;;19.10;47.50;;;;;;4998921;28;19967;-54
2023/01/11 05:10:59;;;;;;;;;;;19.10;47.50;;;;;;5011811;28;19920;-54
2023/01/11 05:13:40;;;;;;;;;;;19.10;47.60;;;;;;5003034;28;19923;-54
2023/01/11 05:16:06;;;;;;;;;;;19.10;47.60;;;;;;4993180;28;19961;-52
2023/01/11 05:18:31;;;;;;;;;;;19.10;47.70;;;;;;5015093;28;19917;-53
2023/01/11 05:20:56;;;;;;;;;;;19.10;47.70;;;;;;5007144;28;20008;-53
2023/01/11 05:23:22;;;;;;;;;;;19.10;47.70;;;;;;4992365;28;19921;-53
2023/01/11 05:25:47;;;;;;;;;;;19.10;47.70;;;;;;4993814;28;19968;-53
2023/01/11 05:28:13;;;;;;;;;;;19.10;47.80;;;;;;5008394;28;20567;-54
2023/01/11 05:30:38;;;;;;;;;;;19.10;47.80;;;;;;4992441;28;20346;-53
2023/01/11 05:33:04;;;;;;;;;;;19.10;47.80;;;;;;5006930;28;20290;-53
2023/01/11 05:35:29;;;;;;;;;;;19.10;47.90;;;;;;5007735;28;20297;-53
2023/01/11 05:37:54;;;;;;;;;;;19.10;48.00;;;;;;5010448;28;19918;-53
2023/01/11 05:40:20;;;;;;;;;;;19.00;47.90;;;;;;4996595;28;20029;-53
2023/01/11 05:42:46;;;;;;;;;;;19.00;48.00;;;;;;5006870;28;19914;-53
2023/01/11 05:45:30;;;;;;;;;;;19.00;48.10;;;;;;5001848;28;19917;-53
2023/01/11 05:47:56;;;;;;;;;;;19.00;48.20;;;;;;4991156;28;19910;-52
2023/01/11 05:50:22;;;;;;;;;;;19.00;48.20;;;;;;5000941;28;19921;-53
2023/01/11 05:52:47;;;;;;;;;;;19.00;48.30;;;;;;5001677;28;20358;-53
2023/01/11 05:55:13;;;;;;;;;;;19.00;48.30;;;;;;5012706;28;19965;-53
2023/01/11 05:57:41;;;;;;;;;;;19.00;48.30;;;;;;5002773;28;19926;-53
2023/01/11 06:00:07;;;;;;;;;;;19.00;48.50;;;;;;4996194;28;19918;-53
2023/01/11 06:02:33;;;;;;;;;;;19.00;48.40;;;;;;5000474;28;20012;-53
2023/01/11 06:04:58;;;;;;;;;;;19.00;48.50;;;;;;4995329;28;19917;-53
2023/01/11 06:07:24;;;;;;;;;;;19.00;48.50;;;;;;4996066;28;20077;-53
2023/01/11 06:09:49;;;;;;;;;;;18.90;48.70;;;;;;5001624;28;19917;-53
2023/01/11 06:12:15;;;;;;;;;;;18.90;48.80;;;;;;5008383;28;19997;-53
2023/01/11 06:14:40;;;;;;;;;;;18.90;48.80;;;;;;5015070;28;20014;-53
2023/01/11 06:17:06;;;;;;;;;;;18.90;48.90;;;;;;5006863;28;19968;-53
2023/01/11 06:19:31;;;;;;;;;;;18.90;48.90;;;;;;5006006;28;19921;-53
2023/01/11 06:21:56;;;;;;;;;;;18.90;49.00;;;;;;5010936;28;19925;-53
2023/01/11 06:24:22;;;;;;;;;;;18.80;49.00;;;;;;4995852;28;20008;-53
2023/01/11 06:26:47;;;;;;;;;;;18.90;49.30;;;;;;5007839;28;19952;-53
2023/01/11 06:29:13;;;;;;;;;;;18.90;49.10;;;;;;5016473;28;19925;-53
2023/01/11 06:31:39;;;;;;;;;;;18.90;49.10;;;;;;5016872;28;20255;-53
2023/01/11 06:34:04;;;;;;;;;;;18.90;49.10;;;;;;5031241;28;19921;-53
2023/01/11 06:36:30;;;;;;;;;;;18.90;49.10;;;;;;5012014;28;19923;-53
2023/01/11 06:38:55;;;;;;;;;;;18.90;49.10;;;;;;5024637;28;19913;-54
2023/01/11 06:41:20;;;;;;;;;;;18.80;49.10;;;;;;5020158;28;19914;-54
2023/01/11 06:43:46;;;;;;;;;;;18.80;49.10;;;;;;5014096;28;19910;-53
2023/01/11 06:46:12;;;;;;;;;;;18.80;49.10;;;;;;4996092;28;19968;-53
2023/01/11 06:48:37;;;;;;;;;;;18.80;49.10;;;;;;4995241;28;19910;-53
2023/01/11 06:51:03;;;;;;;;;;;18.80;49.10;;;;;;4999897;28;19953;-53
2023/01/11 06:53:28;;;;;;;;;;;18.90;49.10;;;;;;5014590;28;20306;-53
2023/01/11 06:55:54;;;;;;;;;;;18.90;49.10;;;;;;5029779;28;20347;-54
2023/01/11 06:58:21;;;;;;;;;;;18.80;49.10;;;;;;5034265;28;20361;-53
2023/01/11 07:00:46;;;;;;;;;;;18.80;49.20;;;;;;5020268;28;19952;-53
2023/01/11 07:03:12;;;;;;;;;;;18.80;49.20;;;;;;4998135;28;19984;-53
2023/01/11 07:05:37;;;;;;;;;;;18.80;49.20;;;;;;4997145;28;20413;-53
2023/01/11 07:08:03;;;;;;;;;;;18.80;49.30;;;;;;4996258;28;19990;-53
2023/01/11 07:10:28;;;;;;;;;;;18.80;49.30;;;;;;5002730;28;20261;-53
2023/01/11 07:12:54;;;;;;;;;;;18.80;49.30;;;;;;5002938;28;19918;-53
2023/01/11 07:15:19;;;;;;;;;;;18.80;49.30;;;;;;5003159;28;20079;-53
2023/01/11 07:17:46;;;;;;;;;;;18.80;49.30;;;;;;4995666;28;19914;-53
2023/01/11 07:20:12;;;;;;;;;;;18.80;49.20;;;;;;5007068;28;19913;-53
2023/01/11 07:22:37;;;;;;;;;;;18.80;49.30;;;;;;5014422;28;20020;-53
2023/01/11 07:25:03;;;;;;;;;;;18.80;49.30;;;;;;5007477;28;19920;-52
2023/01/11 07:27:29;;;;;;;;;;;18.80;49.30;;;;;;5007754;28;19932;-52
2023/01/11 07:29:54;;;;;;;;;;;18.80;49.30;;;;;;5008469;28;19918;-52
2023/01/11 07:32:19;;;;;;;;;;;18.70;49.30;;;;;;5013994;28;20004;-52
2023/01/11 07:34:45;;;;;;;;;;;18.80;49.40;;;;;;5009671;28;19922;-53
2023/01/11 07:37:12;;;;;;;;;;;18.80;49.40;;;;;;5016146;28;20354;-53
2023/01/11 07:39:37;;;;;;;;;;;18.80;49.40;;;;;;4995021;28;20396;-54
2023/01/11 07:44:47;;;;;;;;;;;18.80;49.30;;;;;;5009919;28;20389;-52
2023/01/11 07:47:12;;;;;;;;;;;18.90;49.40;;;;;;5013673;28;19910;-55
2023/01/11 07:49:37;;;;;;;;;;;18.90;49.20;;;;;;5012078;28;19953;-53
2023/01/11 07:52:03;;;;;;;;;;;18.90;49.30;;;;;;5001352;28;19924;-53
2023/01/11 07:54:28;;;;;;;;;;;18.90;49.40;;;;;;5028334;28;19944;-54
2023/01/11 07:56:55;;;;;;;;;;;18.80;49.30;;;;;;5013195;28;19909;-54
2023/01/11 07:59:21;;;;;;;;;;;18.80;49.40;;;;;;5013321;28;19921;-54
2023/01/11 08:01:46;;;;;;;;;;;18.80;49.50;;;;;;5000917;28;19981;-54
2023/01/11 08:04:13;;;;;;;;;;;18.80;50.20;;;;;;5011247;28;19980;-54
2023/01/11 08:06:38;;;;;;;;;;;18.70;49.60;;;;;;5011390;28;19914;-54
2023/01/11 08:09:04;;;;;;;;;;;18.80;49.60;;;;;;5010065;28;19924;-54
2023/01/11 08:16:58;;;;;;;;;;;18.80;49.60;;;;;;5006266;28;19932;-54
2023/01/11 08:19:23;;;;;;;;;;;18.80;49.50;;;;;;4998933;28;19939;-54
2023/01/11 08:21:49;;;;;;;;;;;18.80;49.60;;;;;;5010994;28;20348;-54
2023/01/11 08:24:15;;;;;;;;;;;18.80;49.60;;;;;;4998021;28;19914;-54
2023/01/11 08:26:40;;;;;;;;;;;18.80;49.70;;;;;;5014993;28;19922;-55
2023/01/11 08:29:06;;;;;;;;;;;18.80;49.70;;;;;;4994479;28;19914;-54
2023/01/11 08:31:31;;;;;;;;;;;18.80;49.60;;;;;;4994062;28;19910;-55
2023/01/11 08:33:57;;;;;;;;;;;18.80;49.70;;;;;;4996809;28;19921;-54
2023/01/11 08:36:23;;;;;;;;;;;18.80;49.70;;;;;;4992700;28;19914;-54
2023/01/11 08:38:52;;;;;;;;;;;18.80;49.70;;;;;;5001041;28;19909;-54
2023/01/11 08:41:17;;;;;;;;;;;18.80;49.70;;;;;;5020602;28;19914;-54
2023/01/11 08:43:43;;;;;;;;;;;18.80;49.70;;;;;;5009123;28;20258;-54
2023/01/11 08:46:08;;;;;;;;;;;18.80;49.70;;;;;;4996856;28;19921;-54
2023/01/11 08:48:34;;;;;;;;;;;18.80;49.80;;;;;;5008166;28;20000;-52
2023/01/11 08:50:59;;;;;;;;;;;18.80;49.80;;;;;;4997008;28;19909;-54
2023/01/11 08:53:25;;;;;;;;;;;18.80;49.80;;;;;;5004287;28;19923;-52
2023/01/11 08:55:50;;;;;;;;;;;18.80;49.80;;;;;;5015351;28;20374;-53
2023/01/11 08:58:16;;;;;;;;;;;18.80;49.80;;;;;;5010954;28;20004;-53
2023/01/11 09:00:41;;;;;;;;;;;18.80;49.90;;;;;;5003677;28;19941;-53
2023/01/11 09:03:07;;;;;;;;;;;18.80;50.00;;;;;;4996429;28;19976;-53
2023/01/11 09:05:32;;;;;;;;;;;18.80;50.10;;;;;;5020200;28;19914;-53
2023/01/11 09:07:58;;;;;;;;;;;18.80;50.20;;;;;;5018239;28;20702;-52
2023/01/11 09:10:26;;;;;;;;;;;18.80;50.10;;;;;;5001470;28;20373;-55
2023/01/11 09:12:52;;;;;;;;;;;18.80;50.50;;;;;;5009565;28;19916;-54
2023/01/11 09:15:17;;;;;;;;;;;18.80;50.30;;;;;;5000662;28;19918;-54
2023/01/11 09:17:43;;;;;;;;;;;18.80;50.40;;;;;;5016135;28;20373;-54
2023/01/11 09:20:10;;;;;;;;;;;18.70;50.40;;;;;;5018164;28;19913;-54
2023/01/11 09:22:36;;;;;;;;;;;18.70;50.50;;;;;;5011976;28;20856;-54
2023/01/11 09:25:01;;;;;;;;;;;18.70;50.50;;;;;;5007056;28;19917;-53
2023/01/11 09:27:27;;;;;;;;;;;18.70;50.60;;;;;;5016574;28;20324;-54
2023/01/11 09:29:52;;;;;;;;;;;18.70;50.60;;;;;;5001711;28;20007;-53
2023/01/11 09:32:18;;;;;;;;;;;18.70;50.70;;;;;;5007390;28;19972;-53
2023/01/11 09:34:45;;;;;;;;;;;18.70;50.60;;;;;;5011315;28;20680;-53
2023/01/11 09:37:10;;;;;;;;;;;19.10;50.10;;;;;;5012787;28;19921;-53
2023/01/11 09:39:36;;;;;;;;;;;20.00;48.40;;;;;;5009261;28;19924;-53
2023/01/11 09:42:10;;;;;;;;;;;20.90;46.70;;;;;;5015316;28;19976;-53
2023/01/11 09:44:40;;;;;;;;;;;21.60;45.50;;;;;;5010738;28;19956;-54
2023/01/11 09:47:12;;;;;;;;;;;22.10;44.30;;;;;;5008577;28;19967;-54
2023/01/11 09:49:40;;;;;;;;;;;22.30;43.80;;;;;;5041250;28;20020;-54
2023/01/11 09:52:27;;;;;;;;;;;22.30;43.90;;;;;;5008137;28;19976;-53
2023/01/11 09:54:53;;;;;;;;;;;22.30;43.90;;;;;;5012345;28;19922;-54
2023/01/11 09:57:18;;;;;;;;;;;22.40;43.70;;;;;;5013467;28;20425;-54
2023/01/11 09:59:50;;;;;;;;;;;22.70;43.50;;;;;;5009027;28;20369;-54
2023/01/11 10:02:16;;;;;;;;;;;22.90;43.10;;;;;;5009688;28;19917;-53
2023/01/11 10:04:47;;;;;;;;;;;23.00;42.70;;;;;;5008143;28;19936;-54
2023/01/11 10:07:21;;;;;;;;;;;23.20;42.60;;;;;;4996024;28;19977;-53
2023/01/11 10:09:54;;;;;;;;;;;23.30;42.30;;;;;;5020078;28;19982;-53
2023/01/11 10:12:40;;;;;;;;;;;23.50;42.20;;;;;;5010806;28;20377;-53
2023/01/11 10:15:12;;;;;;;;;;;23.60;42.00;;;;;;5001803;28;19917;-53
2023/01/11 10:18:03;;;;;;;;;;;23.70;41.90;;;;;;5011595;28;20320;-53
2023/01/11 10:20:39;;;;;;;;;;;23.70;41.70;;;;;;5043099;28;20047;-52
2023/01/11 10:23:10;;;;;;;;;;;23.70;41.60;;;;;;5011990;28;20321;-54
2023/01/11 10:25:49;;;;;;;;;;;23.80;41.70;;;;;;5037430;28;19914;-54
2023/01/11 10:28:30;;;;;;;;;;;23.80;41.70;;;;;;5007093;28;19924;-53
2023/01/11 10:39:38;;;;;;;;;;;24.00;41.50;;;;;;5019301;28;19981;-55
2023/01/11 10:42:07;;;;;;;;;;;24.10;41.50;;;;;;5020718;28;19996;-54
2023/01/11 10:44:54;;;;;;;;;;;24.10;41.40;;;;;;5039123;28;19914;-54
2023/01/11 10:47:21;;;;;;;;;;;24.10;41.40;;;;;;5026834;28;20027;-54
2023/01/11 10:49:47;;;;;;;;;;;24.10;41.40;;;;;;5027860;28;19914;-54
2023/01/11 10:52:32;;;;;;;;;;;24.10;41.50;;;;;;4997518;28;19921;-53
2023/01/11 10:54:59;;;;;;;;;;;24.10;41.60;;;;;;4998457;28;19917;-53
2023/01/11 10:57:37;;;;;;;;;;;24.20;41.80;;;;;;5026867;28;19925;-53
2023/01/11 11:00:15;;;;;;;;;;;24.20;41.80;;;;;;5039765;28;20389;-54
2023/01/11 11:03:06;;;;;;;;;;;24.20;41.80;;;;;;5007140;28;19925;-54
2023/01/11 11:05:51;;;;;;;;;;;24.20;41.70;;;;;;5015191;28;20377;-53
2023/01/11 11:08:18;;;;;;;;;;;24.30;41.80;;;;;;5007428;28;19913;-53
2023/01/11 11:10:56;;;;;;;;;;;24.30;41.70;;;;;;5010234;28;20036;-54
2023/01/11 11:13:24;;;;;;;;;;;24.30;41.70;;;;;;5011045;28;20011;-54
2023/01/11 11:16:01;;;;;;;;;;;24.30;41.70;;;;;;5011262;28;20297;-54
2023/01/11 11:18:26;;;;;;;;;;;24.30;41.60;;;;;;5014059;28;19913;-55
2023/01/11 11:20:52;;;;;;;;;;;24.40;41.70;;;;;;5009327;28;19913;-54
2023/01/11 11:23:20;;;;;;;;;;;24.40;41.60;;;;;;5012753;28;19922;-54
2023/01/11 11:25:50;;;;;;;;;;;24.40;41.60;;;;;;5042815;28;20395;-54
2023/01/11 11:28:15;;;;;;;;;;;24.40;41.50;;;;;;5008105;28;19914;-53
2023/01/11 11:30:41;;;;;;;;;;;24.40;41.40;;;;;;5012377;28;19919;-55
2023/01/11 11:33:13;;;;;;;;;;;24.40;41.50;;;;;;5009093;28;19957;-54
2023/01/11 11:35:39;;;;;;;;;;;24.50;41.50;;;;;;5037502;28;19924;-54
2023/01/11 11:38:05;;;;;;;;;;;24.50;41.50;;;;;;5007632;28;20021;-54
2023/01/11 11:40:32;;;;;;;;;;;24.50;41.50;;;;;;5008694;28;20008;-55
2023/01/11 11:43:17;;;;;;;;;;;24.50;41.60;;;;;;5010997;28;19917;-54
2023/01/11 11:45:49;;;;;;;;;;;24.50;41.60;;;;;;5034186;28;19914;-54
2023/01/11 11:48:14;;;;;;;;;;;24.50;41.70;;;;;;5022554;28;19917;-54
2023/01/11 11:50:40;;;;;;;;;;;24.50;41.60;;;;;;5010925;28;19925;-54
2023/01/11 11:53:05;;;;;;;;;;;24.50;41.70;;;;;;5005906;28;19955;-54
2023/01/11 11:55:32;;;;;;;;;;;24.40;41.70;;;;;;5011445;28;19964;-54
2023/01/11 11:57:58;;;;;;;;;;;24.50;41.80;;;;;;5039801;28;19914;-54
2023/01/11 12:00:23;;;;;;;;;;;24.50;41.70;;;;;;5001031;28;19920;-53
2023/01/11 12:02:52;;;;;;;;;;;24.50;41.70;;;;;;5011826;28;20012;-54
2023/01/11 12:05:17;;;;;;;;;;;24.50;41.70;;;;;;5023660;28;20358;-54
2023/01/11 12:07:43;;;;;;;;;;;24.50;41.70;;;;;;5014212;28;19967;-54
2023/01/11 12:10:13;;;;;;;;;;;24.50;41.60;;;;;;5011096;28;19913;-54
2023/01/11 12:13:08;;;;;;;;;;;24.50;41.60;;;;;;4999821;28;19929;-54
2023/01/11 12:15:33;;;;;;;;;;;24.60;41.60;;;;;;5008595;28;19956;-54
2023/01/11 12:18:17;;;;;;;;;;;24.60;41.60;;;;;;5030201;28;19964;-54
2023/01/11 12:20:43;;;;;;;;;;;24.70;41.50;;;;;;5000881;28;19917;-54
2023/01/11 12:23:11;;;;;;;;;;;24.70;41.50;;;;;;4995642;28;19926;-54
2023/01/11 12:25:44;;;;;;;;;;;24.70;41.50;;;;;;5011702;28;20369;-54
2023/01/11 12:28:15;;;;;;;;;;;24.60;41.50;;;;;;5001365;28;19917;-54
2023/01/11 12:30:41;;;;;;;;;;;24.60;41.60;;;;;;5030258;28;19929;-54
2023/01/11 12:33:09;;;;;;;;;;;24.50;41.80;;;;;;4994803;28;20362;-55
2023/01/11 12:35:44;;;;;;;;;;;24.50;41.90;;;;;;4990913;28;19964;-55
2023/01/11 12:38:16;;;;;;;;;;;24.40;41.90;;;;;;5024156;28;19936;-54
2023/01/11 12:40:52;;;;;;;;;;;24.50;42.00;;;;;;5030684;28;19917;-55
2023/01/11 12:43:37;;;;;;;;;;;24.50;41.90;;;;;;5010588;28;20358;-54
2023/01/11 12:46:06;;;;;;;;;;;24.60;41.80;;;;;;5000048;28;19914;-54
2023/01/11 12:48:57;;;;;;;;;;;24.60;41.80;;;;;;5026117;28;19953;-54
2023/01/11 12:51:37;;;;;;;;;;;24.70;41.80;;;;;;5012137;28;20360;-54
2023/01/11 12:54:16;;;;;;;;;;;24.70;41.70;;;;;;5011519;28;19995;-53
2023/01/11 12:57:00;;;;;;;;;;;24.70;41.80;;;;;;5041477;28;19984;-53
2023/01/11 12:59:41;;;;;;;;;;;24.70;41.70;;;;;;5005396;28;19917;-54
2023/01/11 13:02:13;;;;;;;;;;;24.70;41.70;;;;;;5035390;28;19952;-55
2023/01/11 13:04:42;;;;;;;;;;;24.70;41.80;;;;;;5003264;28;19914;-54
2023/01/11 13:07:23;;;;;;;;;;;24.70;41.80;;;;;;4993698;28;19920;-54
2023/01/11 13:09:54;;;;;;;;;;;24.70;41.80;;;;;;4997375;28;19960;-54
2023/01/11 13:12:20;;;;;;;;;;;24.70;41.80;;;;;;5034956;28;19917;-54
2023/01/11 13:14:49;;;;;;;;;;;24.80;41.90;;;;;;5004200;28;20027;-53
2023/01/11 13:17:21;;;;;;;;;;;24.80;41.80;;;;;;4996621;28;20389;-53
2023/01/11 13:20:16;;;;;;;;;;;24.90;41.70;;;;;;4999452;28;19944;-54
2023/01/11 13:22:44;;;;;;;;;;;24.90;41.60;;;;;;5007516;28;19930;-53
2023/01/11 13:25:14;;;;;;;;;;;24.90;41.60;;;;;;5024000;28;19961;-53
2023/01/11 13:27:39;;;;;;;;;;;25.00;41.60;;;;;;5034710;28;19917;-54
2023/01/11 13:30:05;;;;;;;;;;;25.00;41.50;;;;;;4992130;28;19921;-53
2023/01/11 13:32:32;;;;;;;;;;;25.00;41.40;;;;;;5033581;28;19913;-53
2023/01/11 13:35:04;;;;;;;;;;;25.00;41.40;;;;;;5025742;28;19926;-53
2023/01/11 13:37:39;;;;;;;;;;;25.10;41.40;;;;;;5030176;28;19913;-54
2023/01/11 13:40:20;;;;;;;;;;;25.10;41.30;;;;;;5029257;28;19918;-54
2023/01/11 13:42:46;;;;;;;;;;;25.10;41.30;;;;;;5004923;28;19917;-55
2023/01/11 13:45:11;;;;;;;;;;;25.10;41.30;;;;;;5009113;28;19960;-54
2023/01/11 13:47:39;;;;;;;;;;;25.20;41.30;;;;;;5001328;28;20382;-54
2023/01/11 13:50:15;;;;;;;;;;;25.10;41.30;;;;;;5043189;28;20420;-55
2023/01/11 13:52:46;;;;;;;;;;;25.10;41.60;;;;;;4997380;28;19937;-54
2023/01/11 13:55:18;;;;;;;;;;;24.90;41.70;;;;;;4991816;28;19921;-54
2023/01/11 13:57:49;;;;;;;;;;;25.00;41.80;;;;;;5027248;28;19924;-54
2023/01/11 14:00:32;;;;;;;;;;;25.00;41.70;;;;;;5046739;28;20397;-53
2023/01/11 14:02:58;;;;;;;;;;;25.00;41.70;;;;;;5040867;28;19914;-54
2023/01/11 14:05:24;;;;;;;;;;;25.00;41.90;;;;;;5040974;28;19914;-54
2023/01/11 14:07:49;;;;;;;;;;;24.90;42.00;;;;;;5011185;28;19914;-54
2023/01/11 14:10:15;;;;;;;;;;;24.80;42.10;;;;;;5011722;28;19910;-54
2023/01/11 14:13:00;;;;;;;;;;;24.80;42.20;;;;;;5001072;28;19968;-54
2023/01/11 14:15:30;;;;;;;;;;;24.90;42.10;;;;;;5010407;28;19964;-54
2023/01/11 14:17:55;;;;;;;;;;;25.00;42.00;;;;;;4997123;28;20285;-54
2023/01/11 14:20:47;;;;;;;;;;;25.00;41.80;;;;;;5008063;28;19913;-54
2023/01/11 14:23:14;;;;;;;;;;;25.10;41.80;;;;;;5019871;28;19922;-54
2023/01/11 14:25:51;;;;;;;;;;;25.10;41.70;;;;;;5011674;28;19914;-55
2023/01/11 14:28:38;;;;;;;;;;;25.10;41.60;;;;;;5006820;28;20286;-54
2023/01/11 14:31:11;;;;;;;;;;;25.10;41.50;;;;;;5037961;28;20293;-54
2023/01/11 14:33:36;;;;;;;;;;;25.20;41.60;;;;;;5039054;28;19960;-55
2023/01/11 14:36:20;;;;;;;;;;;25.20;41.50;;;;;;5010807;28;19917;-54
2023/01/11 14:38:57;;;;;;;;;;;25.20;41.40;;;;;;5027600;28;19975;-54
2023/01/11 14:41:32;;;;;;;;;;;25.20;41.50;;;;;;5016381;28;19948;-54
2023/01/11 14:44:16;;;;;;;;;;;25.30;41.50;;;;;;5051947;28;19917;-54
2023/01/11 14:46:47;;;;;;;;;;;25.20;41.40;;;;;;5009040;28;19944;-54
2023/01/11 14:49:31;;;;;;;;;;;25.30;41.50;;;;;;4999451;28;19928;-54
2023/01/11 14:51:58;;;;;;;;;;;25.30;41.50;;;;;;5009242;28;19918;-54
2023/01/11 14:54:31;;;;;;;;;;;25.30;41.40;;;;;;5010379;28;19909;-53
2023/01/11 14:56:57;;;;;;;;;;;25.30;41.40;;;;;;5012174;28;20290;-54
2023/01/11 14:59:25;;;;;;;;;;;25.30;41.50;;;;;;5007726;28;19910;-54